Terminal Aerodrome Forecast
Issued by NWS

Home | Current Version | Previous Version | Text Only | Print | Product List | Glossary On
Versions: 1 2 3 4 5 6 7 8 9 10 11 12 13 14 15 16 17 18 19 20 21 22 23 24 25 26 27 28 29 30 31
000
FTUS41 KOKX 300535
TAFGON
TAF
KGON 300535Z 3006/3106 VRB02KT 1/4SM FG VV002
      TEMPO 3011/3013 1/2SM FG OVC003
     FM301300 21008KT 3SM BR BKN007
     FM301500 19010KT P6SM SCT020 BKN250
     FM310400 20005KT P6SM BKN005=

USA.gov is the U.S. government's official web portal to all federal, state and local government web resources and services.